Time;durP1;ratioP1;P1;durP2;ratioP2;P2;SDS_P1;SDS_P2;PMS_P1;PMS_P2;Temp;Humidity;BMP_temperature;BMP_pressure;BME280_temperature;BME280_humidity;BME280_pressure;Samples;Min_cycle;Max_cycle;Signal;HPM_P1;HPM_P2
2023/08/08 00:01:11;;;;;;;1.10;0.80;;;23.10;65.40;;;;;;6129495;28;80968;-60
2023/08/08 00:04:11;;;;;;;1.20;1.10;;;23.10;65.30;;;;;;6128616;28;80411;-51
2023/08/08 00:07:12;;;;;;;0.82;0.77;;;23.00;65.30;;;;;;6126985;28;80129;-49
2023/08/08 00:10:12;;;;;;;1.90;1.00;;;23.10;65.30;;;;;;6126519;28;80441;-48
2023/08/08 00:13:13;;;;;;;1.05;0.95;;;23.10;65.30;;;;;;6128160;28;80464;-47
2023/08/08 00:16:13;;;;;;;1.17;0.90;;;23.00;65.20;;;;;;6131734;28;81054;-48
2023/08/08 00:19:14;;;;;;;2.25;0.90;;;23.00;65.20;;;;;;6151070;28;82047;-46
2023/08/08 00:22:14;;;;;;;1.23;1.00;;;23.00;65.20;;;;;;6141627;28;80271;-46
2023/08/08 00:25:15;;;;;;;2.30;0.70;;;23.00;65.20;;;;;;6126143;28;81105;-51
2023/08/08 00:28:15;;;;;;;0.80;0.80;;;23.00;65.20;;;;;;6126017;28;83669;-48
2023/08/08 00:31:19;;;;;;;1.27;0.80;;;23.00;65.20;;;;;;6116804;28;85607;-50
2023/08/08 00:34:20;;;;;;;0.90;0.85;;;23.00;65.20;;;;;;6117871;28;81525;-47
2023/08/08 00:37:20;;;;;;;0.88;0.88;;;23.00;65.10;;;;;;6109209;28;81297;-48
2023/08/08 00:40:21;;;;;;;1.35;1.00;;;23.00;65.00;;;;;;6123605;28;80489;-65
2023/08/08 00:43:21;;;;;;;1.48;0.90;;;23.00;65.30;;;;;;6127384;28;81575;-65
2023/08/08 00:46:23;;;;;;;1.15;0.80;;;23.00;65.30;;;;;;6126084;28;80963;-66
2023/08/08 00:49:24;;;;;;;0.88;0.80;;;23.00;65.20;;;;;;6126941;28;80210;-65
2023/08/08 00:52:25;;;;;;;0.73;0.70;;;23.00;65.30;;;;;;6118656;28;80485;-65
2023/08/08 00:55:25;;;;;;;1.15;0.63;;;23.00;65.20;;;;;;6116841;28;81229;-66
2023/08/08 00:58:26;;;;;;;1.25;0.80;;;23.00;65.30;;;;;;6117155;28;80776;-49
2023/08/08 01:01:26;;;;;;;2.20;1.00;;;23.00;65.20;;;;;;6113018;28;80591;-50
2023/08/08 01:04:27;;;;;;;1.58;0.70;;;23.00;65.20;;;;;;6138860;28;81201;-51
2023/08/08 01:07:28;;;;;;;0.80;0.80;;;23.00;65.10;;;;;;6123301;28;80744;-53
2023/08/08 01:10:28;;;;;;;4.68;0.80;;;23.00;65.10;;;;;;6128941;28;80559;-50
2023/08/08 01:13:29;;;;;;;1.17;1.08;;;23.00;65.00;;;;;;6126538;28;81601;-51
2023/08/08 01:16:29;;;;;;;1.50;1.10;;;23.00;65.00;;;;;;6127733;28;82303;-65
2023/08/08 01:19:31;;;;;;;0.77;0.77;;;23.00;65.00;;;;;;6129284;28;80405;-66
2023/08/08 01:22:31;;;;;;;2.33;0.82;;;23.00;64.90;;;;;;6127645;28;82105;-64
2023/08/08 01:25:32;;;;;;;0.70;0.70;;;23.00;64.70;;;;;;6140662;28;81895;-66
2023/08/08 01:28:33;;;;;;;0.98;0.88;;;23.00;64.70;;;;;;6125373;28;83347;-66
2023/08/08 01:31:34;;;;;;;1.45;0.88;;;23.00;64.70;;;;;;6127553;28;81439;-66
2023/08/08 01:34:34;;;;;;;0.93;0.90;;;23.00;64.70;;;;;;6113697;28;81081;-66
2023/08/08 01:37:35;;;;;;;1.77;1.10;;;23.00;64.60;;;;;;6125393;28;83278;-64
2023/08/08 01:40:35;;;;;;;0.70;0.70;;;22.90;64.50;;;;;;6129625;28;81870;-64
2023/08/08 01:43:36;;;;;;;0.85;0.80;;;23.00;64.50;;;;;;6143428;28;80505;-66
2023/08/08 01:46:38;;;;;;;0.93;0.80;;;23.00;64.50;;;;;;6128183;28;80236;-67
2023/08/08 01:49:38;;;;;;;2.53;0.85;;;23.00;64.40;;;;;;6120229;28;82056;-67
2023/08/08 01:52:39;;;;;;;1.23;0.80;;;22.90;64.30;;;;;;6115746;28;81969;-65
2023/08/08 01:55:39;;;;;;;0.68;0.68;;;22.90;64.40;;;;;;6118725;28;80757;-47
2023/08/08 01:58:40;;;;;;;0.77;0.77;;;22.90;64.80;;;;;;6133898;28;82749;-47
2023/08/08 02:01:40;;;;;;;1.17;1.00;;;22.90;64.10;;;;;;6115528;28;82157;-47
2023/08/08 02:04:41;;;;;;;1.48;0.90;;;22.90;64.10;;;;;;6126214;28;81010;-50
2023/08/08 02:07:41;;;;;;;1.70;0.80;;;22.90;64.10;;;;;;6126776;28;82385;-50
2023/08/08 02:10:42;;;;;;;1.10;0.75;;;22.90;63.90;;;;;;6131866;28;82156;-47
2023/08/08 02:13:42;;;;;;;2.15;1.05;;;22.90;63.90;;;;;;6127450;28;83282;-48
2023/08/08 02:16:43;;;;;;;1.25;1.02;;;22.90;63.90;;;;;;6123874;28;81587;-49
2023/08/08 02:19:44;;;;;;;1.15;1.00;;;22.90;63.60;;;;;;6124345;28;81654;-47
2023/08/08 02:22:45;;;;;;;2.50;0.95;;;22.90;63.50;;;;;;6126446;28;82158;-49
2023/08/08 02:25:45;;;;;;;1.20;0.90;;;22.90;63.50;;;;;;6125442;28;80736;-49
2023/08/08 02:28:46;;;;;;;3.03;1.35;;;22.90;63.50;;;;;;6125888;28;80457;-52
2023/08/08 02:31:46;;;;;;;1.00;0.90;;;22.90;63.50;;;;;;6125828;28;81639;-52
2023/08/08 02:34:47;;;;;;;2.90;1.00;;;22.90;63.20;;;;;;6110853;28;80215;-50
2023/08/08 02:37:47;;;;;;;3.33;1.20;;;22.90;63.20;;;;;;6124862;28;80131;-51
2023/08/08 02:40:48;;;;;;;2.00;1.10;;;22.90;63.00;;;;;;6125505;28;81050;-50
2023/08/08 02:43:49;;;;;;;1.00;0.90;;;22.90;63.30;;;;;;6137685;28;83293;-49
2023/08/08 02:46:50;;;;;;;1.90;1.10;;;22.90;62.90;;;;;;6126627;28;82356;-47
2023/08/08 02:49:51;;;;;;;2.33;1.17;;;23.00;62.70;;;;;;6124010;28;83210;-48
2023/08/08 02:52:51;;;;;;;2.70;1.02;;;22.90;62.60;;;;;;6124648;28;80436;-54
2023/08/08 02:55:55;;;;;;;3.83;1.58;;;22.90;62.40;;;;;;6122197;28;82514;-45
2023/08/08 02:58:55;;;;;;;2.33;1.30;;;22.90;62.20;;;;;;6118571;28;83454;-51
2023/08/08 03:01:56;;;;;;;1.33;0.90;;;22.90;62.10;;;;;;6123884;28;81570;-48
2023/08/08 03:04:56;;;;;;;1.08;1.00;;;22.90;61.90;;;;;;6145850;28;82118;-51
2023/08/08 03:08:00;;;;;;;3.40;1.40;;;22.90;62.00;;;;;;6134546;28;87876;-52
2023/08/08 03:11:01;;;;;;;2.90;1.00;;;22.90;61.80;;;;;;6141483;28;83131;-50
2023/08/08 03:14:02;;;;;;;2.60;1.17;;;22.90;61.70;;;;;;6137281;28;80380;-49
2023/08/08 03:17:03;;;;;;;2.35;1.30;;;22.90;61.40;;;;;;6126651;28;83019;-50
2023/08/08 03:20:05;;;;;;;1.52;1.13;;;22.80;61.30;;;;;;6125270;28;83460;-49
2023/08/08 03:23:07;;;;;;;2.75;1.23;;;22.90;61.30;;;;;;6124974;28;81800;-49
2023/08/08 03:26:08;;;;;;;2.00;1.08;;;22.90;61.20;;;;;;6124877;28;83552;-67
2023/08/08 03:29:10;;;;;;;1.45;1.10;;;22.90;61.10;;;;;;6129624;28;83699;-66
2023/08/08 03:32:15;;;;;;;1.83;1.40;;;22.80;60.90;;;;;;6127985;28;83254;-66
2023/08/08 03:35:16;;;;;;;2.45;1.30;;;22.80;60.80;;;;;;6115139;28;81452;-66
2023/08/08 03:38:17;;;;;;;1.48;1.20;;;22.80;60.80;;;;;;6114296;28;83122;-67
2023/08/08 03:41:17;;;;;;;3.42;1.50;;;22.80;60.70;;;;;;6128770;28;83260;-66
2023/08/08 03:44:18;;;;;;;2.63;1.00;;;22.80;60.80;;;;;;6128188;28;83326;-67
2023/08/08 03:47:19;;;;;;;3.38;1.35;;;22.80;60.70;;;;;;6128599;28;83405;-68
2023/08/08 03:50:20;;;;;;;3.08;1.20;;;22.90;60.60;;;;;;6141865;28;83441;-67
2023/08/08 03:53:20;;;;;;;2.08;1.30;;;22.80;60.40;;;;;;6126225;28;81907;-67
2023/08/08 03:56:21;;;;;;;2.40;1.33;;;22.80;60.20;;;;;;6120977;28;81191;-66
2023/08/08 03:59:22;;;;;;;3.80;1.10;;;22.80;60.20;;;;;;6133034;28;83265;-66
2023/08/08 04:02:22;;;;;;;3.08;1.33;;;22.80;60.10;;;;;;6134192;28;81430;-50
2023/08/08 04:05:23;;;;;;;2.50;1.15;;;22.80;60.10;;;;;;6139699;28;81435;-46
2023/08/08 04:08:25;;;;;;;4.07;1.08;;;22.80;60.10;;;;;;6128314;28;81428;-48
2023/08/08 04:11:26;;;;;;;4.40;1.40;;;22.80;60.00;;;;;;6129375;28;83613;-50
2023/08/08 04:14:27;;;;;;;4.13;1.50;;;22.80;60.00;;;;;;6128212;28;80544;-47
2023/08/08 04:17:27;;;;;;;1.90;1.27;;;22.80;60.10;;;;;;6126440;28;83519;-47
2023/08/08 04:20:28;;;;;;;3.75;1.48;;;22.80;60.20;;;;;;6127729;28;81499;-65
2023/08/08 04:23:28;;;;;;;3.08;1.40;;;22.80;60.00;;;;;;6124790;28;80673;-65
2023/08/08 04:26:29;;;;;;;3.75;1.50;;;22.80;60.10;;;;;;6125685;28;80485;-64
2023/08/08 04:29:29;;;;;;;2.72;1.30;;;22.80;60.00;;;;;;6118780;28;81601;-64
2023/08/08 04:32:30;;;;;;;2.05;1.20;;;22.80;60.00;;;;;;6117439;28;80673;-64
2023/08/08 04:35:30;;;;;;;3.03;1.20;;;22.80;60.10;;;;;;6104503;28;83431;-63
2023/08/08 04:38:31;;;;;;;3.80;1.70;;;22.80;59.80;;;;;;6111794;28;81297;-63
2023/08/08 04:41:31;;;;;;;1.83;1.42;;;22.80;59.80;;;;;;6118150;28;81799;-61
2023/08/08 04:44:32;;;;;;;4.65;1.42;;;22.80;59.90;;;;;;6108717;28;80387;-62
2023/08/08 04:47:32;;;;;;;5.68;1.33;;;22.80;59.70;;;;;;6136670;28;80486;-62
2023/08/08 04:50:33;;;;;;;2.28;1.23;;;22.80;59.80;;;;;;6141457;28;80446;-64
2023/08/08 04:53:34;;;;;;;3.22;1.33;;;22.80;59.80;;;;;;6141341;28;80166;-63
2023/08/08 04:56:34;;;;;;;2.08;1.40;;;22.80;59.70;;;;;;6128318;28;80604;-63
2023/08/08 04:59:35;;;;;;;2.03;1.38;;;22.80;59.70;;;;;;6119883;28;80880;-63
2023/08/08 05:02:35;;;;;;;3.00;1.45;;;22.80;59.70;;;;;;6111250;28;81331;-63
2023/08/08 05:05:36;;;;;;;2.80;1.48;;;22.80;59.80;;;;;;6110340;28;83973;-63
2023/08/08 05:08:36;;;;;;;4.60;1.55;;;22.80;59.70;;;;;;6108318;28;80529;-64
2023/08/08 05:11:37;;;;;;;1.63;1.42;;;22.80;59.80;;;;;;6105363;28;81754;-63
2023/08/08 05:14:37;;;;;;;2.58;1.60;;;22.90;60.00;;;;;;6105635;28;80885;-64
2023/08/08 05:17:38;;;;;;;2.53;1.25;;;22.90;60.20;;;;;;6115384;28;80361;-66
2023/08/08 05:20:38;;;;;;;3.58;1.60;;;22.90;60.00;;;;;;6105637;28;82285;-61
2023/08/08 05:23:39;;;;;;;2.53;1.83;;;22.90;60.00;;;;;;6114225;28;80804;-69
2023/08/08 05:26:40;;;;;;;2.45;1.10;;;22.90;60.30;;;;;;6124359;28;82183;-65
2023/08/08 05:29:41;;;;;;;2.60;1.60;;;23.00;60.70;;;;;;6124451;28;80353;-64
2023/08/08 05:32:41;;;;;;;2.33;1.42;;;23.00;60.50;;;;;;6117655;28;80588;-63
2023/08/08 05:35:41;;;;;;;4.15;1.60;;;23.00;60.70;;;;;;6127788;28;81087;-65
2023/08/08 05:38:42;;;;;;;2.10;1.35;;;23.00;60.30;;;;;;6126521;28;81685;-63
2023/08/08 05:41:42;;;;;;;5.50;1.50;;;23.00;60.30;;;;;;6134444;28;80644;-65
2023/08/08 05:44:43;;;;;;;4.45;1.98;;;23.00;60.50;;;;;;6137419;28;85326;-63
2023/08/08 05:47:44;;;;;;;9.07;1.63;;;23.00;60.50;;;;;;6142353;28;80874;-66
2023/08/08 05:50:44;;;;;;;2.38;1.58;;;23.00;60.40;;;;;;6134681;28;80494;-61
2023/08/08 05:53:45;;;;;;;2.15;1.33;;;23.00;60.40;;;;;;6123530;28;80518;-50
2023/08/08 05:56:46;;;;;;;2.45;1.50;;;23.00;60.40;;;;;;6124819;28;80493;-52
2023/08/08 05:59:47;;;;;;;2.15;1.40;;;23.00;60.40;;;;;;6121931;28;80876;-52
2023/08/08 06:02:47;;;;;;;4.10;1.92;;;23.00;60.50;;;;;;6113068;28;81338;-50
2023/08/08 06:05:48;;;;;;;5.32;1.48;;;23.00;60.60;;;;;;6113948;28;80462;-54
2023/08/08 06:08:48;;;;;;;3.90;1.50;;;23.00;60.60;;;;;;6110805;28;81468;-49
2023/08/08 06:11:49;;;;;;;2.38;1.40;;;23.00;60.60;;;;;;6123385;28;80463;-61
2023/08/08 06:14:50;;;;;;;6.95;1.27;;;23.00;60.40;;;;;;6123646;28;80842;-61
2023/08/08 06:17:50;;;;;;;4.07;1.75;;;23.00;60.40;;;;;;6132672;28;84804;-63
2023/08/08 06:20:51;;;;;;;10.13;1.60;;;23.00;60.40;;;;;;6121634;28;80565;-62
2023/08/08 06:23:54;;;;;;;4.43;1.50;;;23.10;60.70;;;;;;6123756;28;81088;-63
2023/08/08 06:26:55;;;;;;;7.10;1.83;;;23.00;60.60;;;;;;6132734;28;80616;-60
2023/08/08 06:29:55;;;;;;;2.97;1.58;;;23.10;60.70;;;;;;6123222;28;82218;-49
2023/08/08 06:32:56;;;;;;;5.70;2.13;;;23.10;60.80;;;;;;6122319;28;80869;-48
2023/08/08 06:35:57;;;;;;;5.97;1.70;;;23.10;61.50;;;;;;6114737;28;88654;-48
2023/08/08 06:38:57;;;;;;;6.65;1.88;;;23.10;62.20;;;;;;6125719;28;80629;-50
2023/08/08 06:41:58;;;;;;;3.17;1.48;;;23.10;62.30;;;;;;6119039;28;81175;-48
2023/08/08 06:45:09;;;;;;;6.40;1.70;;;23.10;62.20;;;;;;6109578;28;83512;-47
2023/08/08 06:48:10;;;;;;;4.85;1.90;;;23.10;62.20;;;;;;6135912;28;80694;-47
2023/08/08 06:51:11;;;;;;;5.75;1.90;;;23.10;62.80;;;;;;6134933;28;80802;-46
2023/08/08 06:54:11;;;;;;;3.03;1.80;;;23.10;62.80;;;;;;6108847;28;80450;-47
2023/08/08 06:57:12;;;;;;;2.67;1.40;;;23.10;62.60;;;;;;6122993;28;81545;-48
2023/08/08 07:00:13;;;;;;;3.70;1.60;;;23.10;62.20;;;;;;6112004;28;80811;-52
2023/08/08 07:03:13;;;;;;;3.10;1.50;;;23.10;62.00;;;;;;6108581;28;81208;-47
2023/08/08 07:06:14;;;;;;;3.65;1.52;;;23.20;62.00;;;;;;6115553;28;82067;-48
2023/08/08 07:09:14;;;;;;;10.25;1.88;;;23.20;60.90;;;;;;6112248;28;83477;-55
2023/08/08 07:12:15;;;;;;;7.60;2.03;;;23.20;60.70;;;;;;6125691;28;80983;-49
2023/08/08 07:15:15;;;;;;;3.50;1.90;;;23.20;61.00;;;;;;6119351;28;81039;-46
2023/08/08 07:18:16;;;;;;;6.38;2.08;;;23.20;61.20;;;;;;6119696;28;80950;-50
2023/08/08 07:21:16;;;;;;;6.10;1.58;;;23.30;61.40;;;;;;6110709;28;82753;-46
2023/08/08 07:24:18;;;;;;;3.53;1.80;;;23.30;60.90;;;;;;6123999;28;83737;-64
2023/08/08 07:27:18;;;;;;;5.80;1.90;;;23.30;61.20;;;;;;6128987;28;80900;-66
2023/08/08 07:30:19;;;;;;;5.95;1.77;;;23.30;60.90;;;;;;6127558;28;80490;-71
2023/08/08 07:33:19;;;;;;;10.77;1.98;;;23.30;61.10;;;;;;6112965;28;81754;-64
2023/08/08 07:36:20;;;;;;;172.80;92.82;;;23.40;61.10;;;;;;6118896;28;82432;-65
2023/08/08 07:39:20;;;;;;;146.82;77.32;;;23.40;61.10;;;;;;6112364;28;85984;-62
2023/08/08 07:42:21;;;;;;;219.88;116.07;;;23.40;60.60;;;;;;6118305;28;83210;-62
2023/08/08 07:45:21;;;;;;;264.65;143.10;;;23.50;60.60;;;;;;6108720;28;86649;-63
2023/08/08 07:48:22;;;;;;;326.48;163.43;;;23.50;60.60;;;;;;6126362;28;86739;-65
2023/08/08 07:51:22;;;;;;;390.30;205.00;;;23.50;60.10;;;;;;6126521;28;87351;-63
2023/08/08 07:54:23;;;;;;;399.38;210.45;;;23.50;59.70;;;;;;6128109;28;86825;-62
2023/08/08 07:57:23;;;;;;;319.42;164.43;;;23.60;59.90;;;;;;6125116;28;88340;-65
2023/08/08 08:00:24;;;;;;;268.17;137.63;;;23.60;59.50;;;;;;6123111;28;85897;-47
2023/08/08 08:03:24;;;;;;;247.43;119.43;;;23.60;59.50;;;;;;6129147;28;86718;-52
2023/08/08 08:06:25;;;;;;;218.00;109.75;;;23.60;59.50;;;;;;6118055;28;86581;-56
2023/08/08 08:09:25;;;;;;;163.55;86.25;;;23.60;59.10;;;;;;6117000;28;86453;-54
2023/08/08 08:12:26;;;;;;;148.30;75.13;;;23.60;58.80;;;;;;6127644;28;86073;-56
2023/08/08 08:15:26;;;;;;;135.40;68.18;;;23.60;58.30;;;;;;6126400;28;85854;-54
2023/08/08 08:18:28;;;;;;;104.40;52.33;;;23.60;58.30;;;;;;6125136;28;84316;-55
2023/08/08 08:21:29;;;;;;;97.63;50.42;;;23.60;58.50;;;;;;6127598;28;84138;-58
2023/08/08 08:24:30;;;;;;;86.50;42.28;;;23.60;57.70;;;;;;6131407;28;84655;-56
2023/08/08 08:27:30;;;;;;;81.55;40.17;;;23.70;57.70;;;;;;6128030;28;86222;-56
2023/08/08 08:30:31;;;;;;;74.68;36.00;;;23.70;57.60;;;;;;6124362;28;83815;-54
2023/08/08 08:33:32;;;;;;;74.25;36.55;;;23.70;57.70;;;;;;6124772;28;87187;-52
2023/08/08 08:36:32;;;;;;;69.03;32.58;;;23.70;57.80;;;;;;6129126;28;84203;-55
2023/08/08 08:39:33;;;;;;;61.85;29.13;;;23.80;57.70;;;;;;6125507;28;83586;-50
2023/08/08 08:42:33;;;;;;;58.03;26.17;;;23.80;57.60;;;;;;6123183;28;85854;-47
2023/08/08 08:45:34;;;;;;;53.13;24.77;;;23.80;57.50;;;;;;6127647;28;84972;-48
2023/08/08 08:48:34;;;;;;;46.85;23.08;;;23.80;57.50;;;;;;6132834;28;83423;-45
2023/08/08 08:51:35;;;;;;;44.60;22.70;;;23.80;57.40;;;;;;6121745;28;83962;-48
2023/08/08 08:54:35;;;;;;;44.08;21.35;;;23.80;57.40;;;;;;6112834;28;83932;-47
2023/08/08 08:57:37;;;;;;;41.10;17.90;;;23.80;56.90;;;;;;6117822;28;84050;-63
2023/08/08 09:00:37;;;;;;;36.55;18.60;;;23.80;56.80;;;;;;6125979;28;88274;-62
2023/08/08 09:03:38;;;;;;;34.08;16.63;;;23.80;56.70;;;;;;6116670;28;82955;-63
2023/08/08 09:06:38;;;;;;;30.88;15.52;;;23.80;56.90;;;;;;6116195;28;83259;-60
2023/08/08 09:09:39;;;;;;;25.48;14.13;;;23.80;56.50;;;;;;6124274;28;84242;-64
2023/08/08 09:12:39;;;;;;;30.23;14.45;;;23.80;56.90;;;;;;6109613;28;88337;-65
2023/08/08 09:15:40;;;;;;;20.35;10.10;;;23.80;56.60;;;;;;6133615;28;83800;-57
2023/08/08 09:18:42;;;;;;;19.08;9.75;;;23.80;56.30;;;;;;6133518;28;84072;-58
2023/08/08 09:21:42;;;;;;;14.43;8.48;;;23.70;55.60;;;;;;6115421;28;83768;-53
2023/08/08 09:24:43;;;;;;;14.48;8.85;;;23.80;55.60;;;;;;6106545;28;84432;-50
2023/08/08 09:27:44;;;;;;;12.50;7.63;;;23.80;55.80;;;;;;6122661;28;81401;-52
2023/08/08 09:30:44;;;;;;;12.75;7.20;;;23.80;56.20;;;;;;6123843;28;84696;-54
2023/08/08 09:33:48;;;;;;;13.15;6.75;;;23.80;55.50;;;;;;6109124;28;80640;-50
2023/08/08 09:36:48;;;;;;;12.88;6.45;;;23.80;54.70;;;;;;6119517;28;80393;-55
2023/08/08 09:39:49;;;;;;;13.60;5.95;;;23.80;55.00;;;;;;6125560;28;80944;-51
2023/08/08 09:42:49;;;;;;;12.25;5.38;;;23.80;54.50;;;;;;6127118;28;81956;-53
2023/08/08 09:45:50;;;;;;;9.48;4.85;;;23.80;54.30;;;;;;6109127;28;85320;-53
2023/08/08 09:48:51;;;;;;;8.88;5.07;;;23.80;55.00;;;;;;6104866;28;85000;-52
2023/08/08 09:51:51;;;;;;;15.07;5.53;;;23.80;55.30;;;;;;6115146;28;84301;-55
2023/08/08 09:54:52;;;;;;;7.82;4.28;;;23.80;54.90;;;;;;6107062;28;80134;-48
2023/08/08 09:57:52;;;;;;;5.55;3.80;;;23.80;54.60;;;;;;6104021;28;81233;-49
2023/08/08 10:00:53;;;;;;;12.43;4.75;;;23.80;55.40;;;;;;6110528;28;80717;-47
2023/08/08 10:03:53;;;;;;;11.38;4.07;;;23.80;55.30;;;;;;6113661;28;81201;-50
2023/08/08 10:06:54;;;;;;;7.55;4.18;;;23.80;55.40;;;;;;6104850;28;80901;-46
2023/08/08 10:09:54;;;;;;;6.30;3.25;;;23.80;55.50;;;;;;6112993;28;80968;-48
2023/08/08 10:12:55;;;;;;;15.13;3.58;;;23.80;55.50;;;;;;6114308;28;80349;-47
2023/08/08 10:15:55;;;;;;;5.43;2.63;;;23.80;55.50;;;;;;6112634;28;80672;-49
2023/08/08 10:18:57;;;;;;;7.75;3.50;;;23.80;55.50;;;;;;6114900;28;80312;-47
2023/08/08 10:21:57;;;;;;;7.13;2.70;;;23.80;55.60;;;;;;6115948;28;82454;-50
2023/08/08 10:24:58;;;;;;;5.38;2.90;;;23.90;55.90;;;;;;6126227;28;81133;-46
2023/08/08 10:27:58;;;;;;;5.22;3.13;;;23.80;55.80;;;;;;6125935;28;81127;-69
2023/08/08 10:30:59;;;;;;;6.07;2.60;;;23.90;56.00;;;;;;6114997;28;82262;-67
2023/08/08 10:33:59;;;;;;;4.18;2.33;;;23.90;56.30;;;;;;6127818;28;81065;-64
2023/08/08 10:37:00;;;;;;;3.53;2.42;;;24.00;56.70;;;;;;6124465;28;81343;-68
2023/08/08 10:40:05;;;;;;;6.55;3.17;;;23.90;56.60;;;;;;6122797;28;80592;-68
2023/08/08 10:43:06;;;;;;;4.33;2.33;;;24.00;57.50;;;;;;6123399;28;81327;-66
2023/08/08 10:46:06;;;;;;;3.85;2.33;;;23.90;56.80;;;;;;6116049;28;81566;-61
2023/08/08 10:49:07;;;;;;;4.68;2.38;;;24.00;57.80;;;;;;6108180;28;80836;-61
2023/08/08 10:52:07;;;;;;;5.25;2.10;;;23.90;57.60;;;;;;6107161;28;80472;-61
2023/08/08 10:55:08;;;;;;;9.05;2.92;;;24.00;57.80;;;;;;6108629;28;80473;-62
2023/08/08 10:58:08;;;;;;;5.20;2.30;;;23.90;58.30;;;;;;6114244;28;84716;-63
2023/08/08 11:01:09;;;;;;;3.83;1.80;;;23.90;57.80;;;;;;6125405;28;81156;-63
2023/08/08 11:04:10;;;;;;;3.90;2.40;;;23.90;57.40;;;;;;6122301;28;81775;-62
2023/08/08 11:07:10;;;;;;;4.55;2.00;;;23.90;57.10;;;;;;6118906;28;80273;-54
2023/08/08 11:10:11;;;;;;;3.28;1.77;;;24.00;57.10;;;;;;6121869;28;80488;-48
2023/08/08 11:13:12;;;;;;;4.97;2.10;;;23.90;56.30;;;;;;6121173;28;80552;-54
2023/08/08 11:16:12;;;;;;;2.92;2.25;;;23.90;55.10;;;;;;6125870;28;83882;-55
2023/08/08 11:19:13;;;;;;;5.40;1.83;;;23.90;55.40;;;;;;6116706;28;80243;-55
2023/08/08 11:22:13;;;;;;;4.30;1.65;;;23.90;53.50;;;;;;6108736;28;81157;-55
2023/08/08 11:25:14;;;;;;;11.20;2.13;;;23.80;53.50;;;;;;6101766;28;80341;-54
2023/08/08 11:28:15;;;;;;;5.45;2.30;;;23.70;53.60;;;;;;6105959;28;81275;-51
2023/08/08 11:31:15;;;;;;;3.08;1.92;;;23.70;52.80;;;;;;6118286;28;82647;-49
2023/08/08 11:34:17;;;;;;;5.05;2.00;;;23.60;52.50;;;;;;6116536;28;80682;-49
2023/08/08 11:37:17;;;;;;;3.22;2.03;;;23.50;53.40;;;;;;6124474;28;81763;-48
2023/08/08 11:40:18;;;;;;;2.42;2.00;;;23.70;53.60;;;;;;6126223;28;83277;-51
2023/08/08 11:43:18;;;;;;;2.95;1.63;;;23.70;53.20;;;;;;6128936;28;80448;-54
2023/08/08 11:46:19;;;;;;;6.13;1.65;;;23.80;53.10;;;;;;6126960;28;85275;-55
2023/08/08 11:49:19;;;;;;;4.93;1.55;;;23.80;53.30;;;;;;6127537;28;82639;-54
2023/08/08 11:52:20;;;;;;;4.63;1.90;;;23.90;53.00;;;;;;6112023;28;81950;-53
2023/08/08 11:55:22;;;;;;;2.13;1.80;;;23.80;52.90;;;;;;6134127;28;84848;-53
2023/08/08 11:58:22;;;;;;;4.20;2.10;;;23.80;52.30;;;;;;6121649;28;81291;-54
2023/08/08 12:01:23;;;;;;;3.25;1.67;;;23.70;52.50;;;;;;6128860;28;80769;-53
2023/08/08 12:04:24;;;;;;;4.40;1.52;;;23.70;52.70;;;;;;6123130;28;80464;-54
2023/08/08 12:07:24;;;;;;;6.60;1.70;;;23.60;52.70;;;;;;6127194;28;81094;-53
2023/08/08 12:10:25;;;;;;;6.72;1.90;;;23.70;53.10;;;;;;6126344;28;80585;-52
2023/08/08 12:13:27;;;;;;;6.47;2.72;;;23.70;53.10;;;;;;6124247;28;80492;-53
2023/08/08 12:16:27;;;;;;;6.05;2.08;;;23.60;52.30;;;;;;6128675;28;81057;-53
2023/08/08 12:19:28;;;;;;;7.38;2.35;;;23.60;53.40;;;;;;6119730;28;82761;-67
2023/08/08 12:22:29;;;;;;;12.02;3.53;;;23.70;53.90;;;;;;6105529;28;81463;-64
2023/08/08 12:25:29;;;;;;;12.57;4.07;;;23.70;54.50;;;;;;6112498;28;82642;-63
2023/08/08 12:28:30;;;;;;;12.50;4.20;;;23.70;55.90;;;;;;6113066;28;82468;-60
2023/08/08 12:31:31;;;;;;;11.63;3.88;;;23.80;56.30;;;;;;6108934;28;82395;-63
2023/08/08 12:34:32;;;;;;;12.77;4.07;;;23.80;56.30;;;;;;6130663;28;81612;-63
2023/08/08 12:37:33;;;;;;;7.63;4.00;;;23.90;56.70;;;;;;6130717;28;81644;-65
2023/08/08 12:40:33;;;;;;;7.53;3.83;;;23.90;56.90;;;;;;6132870;28;81582;-62
2023/08/08 12:43:34;;;;;;;8.82;3.50;;;23.80;56.90;;;;;;6134256;28;84663;-64
2023/08/08 12:46:34;;;;;;;9.48;3.65;;;23.90;57.40;;;;;;6133493;28;81529;-66
2023/08/08 12:49:35;;;;;;;9.00;3.50;;;24.00;57.60;;;;;;6130453;28;81677;-64
2023/08/08 12:52:36;;;;;;;7.82;3.10;;;23.90;57.90;;;;;;6130471;28;81532;-64
2023/08/08 12:55:37;;;;;;;6.18;2.97;;;24.00;57.80;;;;;;6131588;28;81492;-64
2023/08/08 12:58:40;;;;;;;8.90;4.45;;;24.10;58.20;;;;;;6133309;28;80800;-64
2023/08/08 13:01:41;;;;;;;7.93;4.05;;;24.10;58.30;;;;;;6134880;28;81321;-65
2023/08/08 13:04:41;;;;;;;11.85;4.25;;;24.10;58.00;;;;;;6129656;28;81804;-65
2023/08/08 13:07:42;;;;;;;9.82;5.18;;;24.10;58.00;;;;;;6128799;28;81217;-67
2023/08/08 13:10:43;;;;;;;6.68;4.20;;;24.20;58.10;;;;;;6132403;28;81654;-68
2023/08/08 13:13:43;;;;;;;6.38;4.32;;;24.20;58.00;;;;;;6133495;28;81845;-52
2023/08/08 13:16:44;;;;;;;7.22;4.25;;;24.30;58.10;;;;;;6128767;28;81786;-52
2023/08/08 13:19:44;;;;;;;8.00;3.97;;;24.30;58.10;;;;;;6128005;28;81859;-50
2023/08/08 13:22:45;;;;;;;5.85;3.88;;;24.30;57.80;;;;;;6133199;28;81368;-49
2023/08/08 13:25:45;;;;;;;10.20;4.43;;;24.30;58.10;;;;;;6128250;28;82771;-52
2023/08/08 13:28:46;;;;;;;7.93;4.63;;;24.30;58.30;;;;;;6132738;28;81890;-54
2023/08/08 13:31:46;;;;;;;5.70;3.58;;;24.30;58.20;;;;;;6132877;28;81668;-56
2023/08/08 13:34:47;;;;;;;48.72;26.15;;;24.00;56.30;;;;;;6126061;28;81081;-56
2023/08/08 13:37:52;;;;;;;59.95;30.35;;;23.90;57.00;;;;;;6127070;28;83868;-56
2023/08/08 13:40:53;;;;;;;66.97;31.38;;;23.90;55.50;;;;;;6129931;28;84144;-56
2023/08/08 13:43:53;;;;;;;70.13;32.88;;;23.60;53.80;;;;;;6129706;28;84808;-55
2023/08/08 13:46:55;;;;;;;86.47;39.90;;;23.60;54.20;;;;;;6124543;28;83657;-53
2023/08/08 13:49:55;;;;;;;106.53;52.38;;;23.60;53.90;;;;;;6127260;28;84806;-62
2023/08/08 13:52:56;;;;;;;81.75;40.53;;;23.60;53.60;;;;;;6129016;28;84237;-61
2023/08/08 13:55:56;;;;;;;47.63;18.58;;;23.40;53.50;;;;;;6123352;28;83924;-63
2023/08/08 13:58:57;;;;;;;54.58;24.52;;;23.20;52.80;;;;;;6144135;28;84130;-63
2023/08/08 14:01:57;;;;;;;57.15;25.95;;;23.50;53.80;;;;;;6135141;28;83718;-64
2023/08/08 14:04:58;;;;;;;46.85;24.80;;;23.70;54.00;;;;;;6133294;28;83335;-63
2023/08/08 14:07:59;;;;;;;50.53;24.52;;;23.80;54.50;;;;;;6159170;28;85459;-68
2023/08/08 14:10:59;;;;;;;53.25;24.65;;;23.90;54.30;;;;;;6147485;28;83982;-69
2023/08/08 14:14:00;;;;;;;46.53;21.55;;;24.00;54.50;;;;;;6154413;28;88119;-69
2023/08/08 14:17:00;;;;;;;41.83;19.67;;;24.00;54.90;;;;;;6116431;28;84222;-70
2023/08/08 14:20:01;;;;;;;34.50;18.77;;;24.10;55.10;;;;;;6124241;28;83085;-73
2023/08/08 14:23:01;;;;;;;36.63;18.77;;;24.10;55.40;;;;;;6112668;28;85814;-66
2023/08/08 14:26:02;;;;;;;40.42;17.42;;;24.20;55.70;;;;;;6112335;28;82899;-68
2023/08/08 14:29:02;;;;;;;30.75;15.18;;;24.20;55.60;;;;;;6116185;28;83533;-70
2023/08/08 14:32:03;;;;;;;30.63;14.73;;;24.20;55.90;;;;;;6113892;28;83465;-67
2023/08/08 14:35:04;;;;;;;28.70;14.98;;;24.20;56.00;;;;;;6111184;28;83342;-68
2023/08/08 14:38:05;;;;;;;26.40;13.25;;;24.20;56.00;;;;;;6107647;28;83036;-70
2023/08/08 14:41:06;;;;;;;25.65;12.82;;;24.20;56.00;;;;;;6101216;28;84779;-68
2023/08/08 14:44:06;;;;;;;21.48;11.43;;;24.20;56.20;;;;;;6116340;28;87782;-70
2023/08/08 14:47:07;;;;;;;21.85;10.65;;;24.30;56.10;;;;;;6120769;28;83052;-66
2023/08/08 14:50:08;;;;;;;18.35;9.20;;;24.30;55.80;;;;;;6122296;28;83380;-64
2023/08/08 14:53:08;;;;;;;24.30;9.27;;;24.30;55.70;;;;;;6119143;28;85333;-70
2023/08/08 14:56:09;;;;;;;20.65;10.20;;;24.30;55.60;;;;;;6120826;28;80751;-70
2023/08/08 14:59:09;;;;;;;15.90;8.25;;;24.30;55.20;;;;;;6124227;28;83359;-66
2023/08/08 15:02:10;;;;;;;15.60;7.20;;;24.30;54.80;;;;;;6120854;28;87563;-67
2023/08/08 15:05:11;;;;;;;11.07;5.57;;;24.30;54.50;;;;;;6123843;28;80519;-69
2023/08/08 15:08:11;;;;;;;14.75;5.85;;;24.20;52.30;;;;;;6114122;28;80350;-61
2023/08/08 15:11:12;;;;;;;10.70;5.97;;;24.20;53.20;;;;;;6123466;28;80643;-67
2023/08/08 15:14:12;;;;;;;9.93;5.47;;;24.20;53.30;;;;;;6113986;28;81942;-62
2023/08/08 15:17:13;;;;;;;17.58;4.93;;;24.20;52.80;;;;;;6112038;28;80324;-65
2023/08/08 15:20:13;;;;;;;13.55;5.10;;;24.20;52.70;;;;;;6110494;28;80127;-65
2023/08/08 15:23:14;;;;;;;8.15;4.00;;;24.20;52.70;;;;;;6122595;28;81686;-64
2023/08/08 15:26:16;;;;;;;8.40;4.55;;;24.10;52.60;;;;;;6112995;28;81675;-66
2023/08/08 15:29:16;;;;;;;8.73;4.38;;;24.10;52.70;;;;;;6121902;28;80876;-66
2023/08/08 15:32:17;;;;;;;5.78;3.70;;;24.10;52.70;;;;;;6125168;28;81515;-70